Terminal Aerodrome Forecast
Issued by NWS

Home | Current Version | Previous Version | Text Only | Print | Product List | Glossary On
Versions: 1 2 3 4 5 6 7 8 9 10 11 12
063
FTUS42 KTBW 280818 AAA
TAFPIE
TAF AMD
KPIE 280818Z 2808/2906 VRB03KT P6SM SKC
      TEMPO 2809/2811 4SM BR BKN012
     FM281400 15010KT P6SM FEW030
     FM281900 23012KT P6SM SCT050
     FM290200 12005KT P6SM FEW050=

USA.gov is the U.S. government's official web portal to all federal, state and local government web resources and services.